Terminal Aerodrome Forecast
Issued by NWS

Home | Current Version | Previous Version | Text Only | Print | Product List | Glossary On
Versions: 1 2 3 4 5 6 7 8 9 10 11 12 13 14 15 16 17 18 19 20 21 22 23 24 25 26 27 28 29
371
FTUS46 KLOX 251121
TAFSBA
TAF
KSBA 251121Z 2512/2612 VRB03KT P6SM OVC004
     FM251500 VRB03KT P6SM OVC006
     FM251800 17008KT P6SM BKN010
     FM252000 23008KT P6SM FEW010
     FM260400 VRB03KT P6SM SKC
     FM260800 VRB03KT 5SM BR OVC006=

USA.gov is the U.S. government's official web portal to all federal, state and local government web resources and services.